Time,TemperatureF,DewpointF,PressureIn,WindDirection,WindDirectionDegrees,WindSpeedMPH,WindSpeedGustMPH,Humidity,HourlyPrecipIn,Conditions,Clouds,dailyrainin,SoftwareType,DateUTC
2013-03-17 00:03:00,28.6,-99.9,-100.00,North,-999,0.0,0.0,-999,0.00,,,-99.99,WeatherLink 5.4,2013-03-17 04:03:00,
2013-03-17 00:33:00,28.6,-99.9,-100.00,North,0,0.0,5.0,-999,0.00,,,-99.99,WeatherLink 5.4,2013-03-17 04:33:00,
2013-03-17 00:43:00,28.6,-99.9,-100.00,North,0,0.0,5.0,-999,0.00,,,-99.99,WeatherLink 5.4,2013-03-17 04:43:00,
2013-03-17 00:48:00,28.6,-99.9,-100.00,North,0,0.0,5.0,-999,0.00,,,-99.99,WeatherLink 5.4,2013-03-17 04:48:00,
2013-03-17 00:53:00,28.6,-99.9,-100.00,North,0,0.0,5.0,-999,0.00,,,-99.99,WeatherLink 5.4,2013-03-17 04:53:00,
2013-03-17 01:03:00,28.6,-99.9,-100.00,North,0,0.0,5.0,-999,0.00,,,-99.99,WeatherLink 5.4,2013-03-17 05:03:00,
2013-03-17 01:13:00,28.4,-99.9,-100.00,North,-999,0.0,0.0,-999,0.00,,,-99.99,WeatherLink 5.4,2013-03-17 05:13:00,
2013-03-17 01:23:00,28.4,-99.9,-100.00,North,-999,0.0,0.0,-999,0.00,,,-99.99,WeatherLink 5.4,2013-03-17 05:23:00,
2013-03-17 01:33:00,28.4,-99.9,-100.00,North,-999,0.0,0.0,-999,0.00,,,-99.99,WeatherLink 5.4,2013-03-17 05:33:00,
2013-03-17 01:43:00,28.4,-99.9,-100.00,North,-999,0.0,0.0,-999,0.00,,,-99.99,WeatherLink 5.4,2013-03-17 05:43:00,
2013-03-17 01:53:00,28.4,-99.9,-100.00,North,-999,0.0,0.0,-999,0.00,,,-99.99,WeatherLink 5.4,2013-03-17 05:53:00,
2013-03-17 01:58:00,28.4,-99.9,-100.00,North,-999,0.0,0.0,-999,0.00,,,-99.99,WeatherLink 5.4,2013-03-17 05:58:00,
2013-03-17 02:03:00,28.4,-99.9,-100.00,North,-999,0.0,0.0,-999,0.00,,,-99.99,WeatherLink 5.4,2013-03-17 06:03:00,
2013-03-17 02:13:00,28.1,-99.9,-100.00,North,-999,0.0,0.0,-999,0.00,,,-99.99,WeatherLink 5.4,2013-03-17 06:13:00,
2013-03-17 02:23:00,28.1,-99.9,-100.00,North,-999,0.0,0.0,-999,0.00,,,-99.99,WeatherLink 5.4,2013-03-17 06:23:00,
2013-03-17 02:33:00,28.1,-99.9,-100.00,North,-999,0.0,0.0,-999,0.00,,,-99.99,WeatherLink 5.4,2013-03-17 06:33:00,
2013-03-17 02:43:00,28.1,-99.9,-100.00,WNW,292,0.0,4.0,-999,0.00,,,-99.99,WeatherLink 5.4,2013-03-17 06:43:00,
2013-03-17 02:53:00,28.1,-99.9,-100.00,WNW,292,0.0,4.0,-999,0.00,,,-99.99,WeatherLink 5.4,2013-03-17 06:53:00,
2013-03-17 03:03:00,28.1,-99.9,-100.00,WNW,292,0.0,4.0,-999,0.00,,,-99.99,WeatherLink 5.4,2013-03-17 07:03:00,
2013-03-17 03:13:00,28.2,-99.9,-100.00,North,-999,0.0,0.0,-999,0.00,,,-99.99,WeatherLink 5.4,2013-03-17 07:13:00,
2013-03-17 03:18:00,28.2,-99.9,-100.00,North,-999,0.0,0.0,-999,0.00,,,-99.99,WeatherLink 5.4,2013-03-17 07:18:00,
2013-03-17 03:23:00,28.2,-99.9,-100.00,North,-999,0.0,0.0,-999,0.00,,,-99.99,WeatherLink 5.4,2013-03-17 07:23:00,
2013-03-17 03:33:00,28.2,-99.9,-100.00,North,-999,0.0,0.0,-999,0.00,,,-99.99,WeatherLink 5.4,2013-03-17 07:33:00,
2013-03-17 04:30:00,28.8,-99.9,-100.00,North,-999,0.0,0.0,-999,0.00,,,-99.99,WeatherLink 5.4,2013-03-17 08:30:00,
2013-03-17 05:00:00,28.9,-99.9,-100.00,North,-999,0.0,0.0,-999,0.00,,,-99.99,WeatherLink 5.4,2013-03-17 09:00:00,
2013-03-17 05:30:00,29.0,-99.9,-100.00,North,-999,0.0,0.0,-999,0.00,,,-99.99,WeatherLink 5.4,2013-03-17 09:30:00,
2013-03-17 06:00:00,28.9,-99.9,-100.00,North,-999,0.0,0.0,-999,0.00,,,-99.99,WeatherLink 5.4,2013-03-17 10:00:00,
2013-03-17 06:30:00,28.9,-99.9,-100.00,North,-999,0.0,0.0,-999,0.00,,,-99.99,WeatherLink 5.4,2013-03-17 10:30:00,
2013-03-17 07:00:00,29.0,-99.9,-100.00,North,0,0.0,4.0,-999,0.00,,,-99.99,WeatherLink 5.4,2013-03-17 11:00:00,
2013-03-17 07:30:00,29.0,-99.9,-100.00,NW,315,1.0,7.0,-999,0.00,,,-99.99,WeatherLink 5.4,2013-03-17 11:30:00,
2013-03-17 08:00:00,29.0,-99.9,-100.00,NW,315,0.0,4.0,-999,0.00,,,-99.99,WeatherLink 5.4,2013-03-17 12:00:00,
2013-03-17 08:30:00,29.1,-99.9,-100.00,NW,315,0.0,4.0,-999,0.00,,,-99.99,WeatherLink 5.4,2013-03-17 12:30:00,
2013-03-17 09:00:00,29.2,-99.9,-100.00,NW,315,1.0,7.0,-999,0.00,,,-99.99,WeatherLink 5.4,2013-03-17 13:00:00,
2013-03-17 09:30:00,29.5,-99.9,-100.00,NNW,337,1.0,8.0,-999,0.00,,,-99.99,WeatherLink 5.4,2013-03-17 13:30:00,
2013-03-17 10:00:00,29.8,-99.9,-100.00,North,0,3.0,11.0,-999,0.00,,,-99.99,WeatherLink 5.4,2013-03-17 14:00:00,
2013-03-17 10:30:00,32.1,-99.9,-100.00,North,0,2.0,8.0,-999,0.00,,,-99.99,WeatherLink 5.4,2013-03-17 14:30:00,
2013-03-17 11:00:00,42.8,-99.9,-100.00,ENE,67,3.0,10.0,-999,0.00,,,-99.99,WeatherLink 5.4,2013-03-17 15:00:00,
2013-03-17 11:30:00,41.8,-99.9,-100.00,ENE,67,4.0,11.0,-999,0.00,,,-99.99,WeatherLink 5.4,2013-03-17 15:30:00,
2013-03-17 12:00:00,33.1,-99.9,-100.00,North,0,3.0,8.0,-999,0.00,,,-99.99,WeatherLink 5.4,2013-03-17 16:00:00,
2013-03-17 12:30:00,32.2,-99.9,-100.00,North,0,3.0,9.0,-999,0.00,,,-99.99,WeatherLink 5.4,2013-03-17 16:30:00,
2013-03-17 13:00:00,58.4,-99.9,-100.00,NNE,22,3.0,9.0,-999,0.00,,,-99.99,WeatherLink 5.4,2013-03-17 17:00:00,
2013-03-17 13:30:00,99.8,-99.9,-100.00,NE,45,3.0,9.0,-999,0.00,,,-99.99,WeatherLink 5.4,2013-03-17 17:30:00,
2013-03-17 14:00:00,108.1,-99.9,-100.00,North,0,3.0,10.0,-999,0.00,,,-99.99,WeatherLink 5.4,2013-03-17 18:00:00,
2013-03-17 14:30:00,105.7,-99.9,-100.00,ENE,67,4.0,11.0,-999,0.00,,,-99.99,WeatherLink 5.4,2013-03-17 18:30:00,
2013-03-17 15:00:00,107.6,-99.9,-100.00,North,0,4.0,9.0,-999,0.00,,,-99.99,WeatherLink 5.4,2013-03-17 19:00:00,
2013-03-17 15:30:00,108.4,-99.9,-100.00,North,0,1.0,7.0,-999,0.00,,,-99.99,WeatherLink 5.4,2013-03-17 19:30:00,
2013-03-17 16:00:00,106.0,-99.9,-100.00,NNE,22,2.0,9.0,-999,0.00,,,-99.99,WeatherLink 5.4,2013-03-17 20:00:00,
2013-03-17 16:30:00,99.9,-99.9,-100.00,NNE,22,1.0,7.0,-999,0.00,,,-99.99,WeatherLink 5.4,2013-03-17 20:30:00,
2013-03-17 17:00:00,96.4,-99.9,-100.00,NE,45,1.0,8.0,-999,0.00,,,-99.99,WeatherLink 5.4,2013-03-17 21:00:00,
2013-03-17 17:30:00,87.5,-99.9,-100.00,NE,45,1.0,5.0,-999,0.00,,,-99.99,WeatherLink 5.4,2013-03-17 21:30:00,
2013-03-17 18:00:00,80.7,-99.9,-100.00,NE,45,2.0,7.0,-999,0.00,,,-99.99,WeatherLink 5.4,2013-03-17 22:00:00,
2013-03-17 18:30:00,80.4,-99.9,-100.00,NNE,22,1.0,6.0,-999,0.00,,,-99.99,WeatherLink 5.4,2013-03-17 22:30:00,
2013-03-17 19:00:00,79.9,-99.9,-100.00,NE,45,2.0,6.0,-999,0.00,,,-99.99,WeatherLink 5.4,2013-03-17 23:00:00,
2013-03-17 19:30:00,79.6,-99.9,-100.00,NE,45,2.0,8.0,-999,0.00,,,-99.99,WeatherLink 5.4,2013-03-17 23:30:00,
2013-03-17 20:00:00,105.9,-99.9,-100.00,ENE,67,3.0,6.0,-999,0.00,,,-99.99,WeatherLink 5.4,2013-03-18 00:00:00,
2013-03-17 20:30:00,114.2,-99.9,-100.00,East,90,2.0,7.0,-999,0.00,,,-99.99,WeatherLink 5.4,2013-03-18 00:30:00,
2013-03-17 21:00:00,121.1,-99.9,-100.00,East,90,0.0,5.0,-999,0.00,,,-99.99,WeatherLink 5.4,2013-03-18 01:00:00,
2013-03-17 21:30:00,142.8,-99.9,-100.00,North,-999,0.0,0.0,-999,0.00,,,-99.99,WeatherLink 5.4,2013-03-18 01:30:00,
2013-03-17 22:00:00,147.9,-99.9,-100.00,East,90,0.0,5.0,-999,0.00,,,-99.99,WeatherLink 5.4,2013-03-18 02:00:00,
2013-03-17 22:30:00,144.4,-99.9,-100.00,ENE,67,1.0,5.0,-999,0.00,,,-99.99,WeatherLink 5.4,2013-03-18 02:30:00,
2013-03-17 23:00:00,143.4,-99.9,-100.00,ENE,67,1.0,5.0,-999,0.00,,,-99.99,WeatherLink 5.4,2013-03-18 03:00:00,
2013-03-17 23:30:00,141.9,-99.9,-100.00,ENE,67,2.0,6.0,-999,0.00,,,-99.99,WeatherLink 5.4,2013-03-18 03:30:00,